createdAt,value
2023-02-14T00:00:27.547Z,9.280207
2023-02-14T00:01:27.534Z,9.280058
2023-02-14T00:02:27.557Z,9.279945
2023-02-14T00:03:27.496Z,9.279997
2023-02-14T00:04:27.542Z,9.279991
2023-02-14T00:05:27.455Z,9.280024
2023-02-14T00:06:27.437Z,9.280006
2023-02-14T00:07:27.449Z,9.280003
2023-02-14T00:08:27.397Z,9.280025
2023-02-14T00:09:27.382Z,9.279929
2023-02-14T00:10:27.363Z,9.279935
2023-02-14T00:11:27.348Z,9.279786
2023-02-14T00:12:27.352Z,9.279925
2023-02-14T00:13:27.326Z,9.279922
2023-02-14T00:14:27.290Z,9.279901
2023-02-14T00:15:27.269Z,9.279788
2023-02-14T00:16:27.326Z,9.279914
2023-02-14T00:17:27.286Z,9.279976
2023-02-14T00:18:27.216Z,9.279951
2023-02-14T00:19:27.191Z,9.279957
2023-02-14T00:20:27.177Z,9.280072
2023-02-14T00:21:27.156Z,9.280014
2023-02-14T00:22:27.164Z,9.279979
2023-02-14T00:23:27.114Z,9.279872
2023-02-14T00:24:27.121Z,9.279841
2023-02-14T00:25:27.082Z,9.279741
2023-02-14T00:26:27.063Z,9.279774
2023-02-14T00:27:27.068Z,9.279885
2023-02-14T00:28:27.021Z,9.279841
2023-02-14T00:29:26.996Z,9.280003
2023-02-14T00:30:27.107Z,9.279798
2023-02-14T00:31:27.063Z,9.279859
2023-02-14T00:32:26.968Z,9.279837
2023-02-14T00:33:26.930Z,9.279913
2023-02-14T00:34:26.910Z,9.279856
2023-02-14T00:35:26.891Z,9.280030
2023-02-14T00:36:26.869Z,9.279963
2023-02-14T00:37:26.878Z,9.279788
2023-02-14T00:38:26.838Z,9.279966
2023-02-14T00:39:26.808Z,9.279932
2023-02-14T00:40:26.791Z,9.279964
2023-02-14T00:41:26.774Z,9.280169
2023-02-14T00:42:26.786Z,9.279951
2023-02-14T00:43:26.731Z,9.280041
2023-02-14T00:44:26.720Z,9.279983
2023-02-14T00:45:26.741Z,9.280071
2023-02-14T00:46:26.679Z,9.279883
2023-02-14T00:47:26.688Z,9.279665
2023-02-14T00:48:26.648Z,9.279952
2023-02-14T00:49:26.667Z,9.279985
2023-02-14T00:50:26.603Z,9.279846
2023-02-14T00:51:26.589Z,9.279791
2023-02-14T00:52:26.605Z,9.279741
2023-02-14T00:53:26.550Z,9.280002
2023-02-14T00:54:26.531Z,9.280140
2023-02-14T00:55:26.516Z,9.279995
2023-02-14T00:56:26.496Z,9.279963
2023-02-14T00:57:26.502Z,9.280029
2023-02-14T00:58:26.471Z,9.280046
2023-02-14T00:59:26.441Z,9.280078
2023-02-14T01:00:26.419Z,9.279938
2023-02-14T01:01:26.551Z,9.280013
2023-02-14T01:02:26.471Z,9.280130
2023-02-14T01:03:26.367Z,9.279979
2023-02-14T01:04:26.349Z,9.280056
2023-02-14T01:05:26.331Z,9.279924
2023-02-14T01:06:26.310Z,9.280127
2023-02-14T01:07:26.325Z,9.279975
2023-02-14T01:08:26.279Z,9.280056
2023-02-14T01:09:26.261Z,9.279889
2023-02-14T01:10:26.241Z,9.279828
2023-02-14T01:11:26.257Z,9.280071
2023-02-14T01:12:27.229Z,9.280204
2023-02-14T01:13:26.187Z,9.280300
2023-02-14T01:14:26.178Z,9.280188
2023-02-14T01:15:26.149Z,9.280124
2023-02-14T01:16:26.249Z,9.280151
2023-02-14T01:17:26.145Z,9.280193
2023-02-14T01:18:26.095Z,9.280231
2023-02-14T01:19:26.096Z,9.280186
2023-02-14T01:20:26.056Z,9.280201
2023-02-14T01:21:26.040Z,9.280328
2023-02-14T01:22:26.074Z,9.280264
2023-02-14T01:23:26.007Z,9.280219
2023-02-14T01:24:25.990Z,9.280021
2023-02-14T01:25:25.966Z,9.280053
2023-02-14T01:26:25.955Z,9.280055
2023-02-14T01:27:25.972Z,9.280024
2023-02-14T01:28:25.921Z,9.279999
2023-02-14T01:29:25.892Z,9.279898
2023-02-14T01:30:25.972Z,9.279843
2023-02-14T01:31:25.963Z,9.279990
2023-02-14T01:32:25.873Z,9.279910
2023-02-14T01:33:25.828Z,9.279832
2023-02-14T01:34:25.802Z,9.279601
2023-02-14T01:35:25.786Z,9.279865
2023-02-14T01:36:25.769Z,9.279865
2023-02-14T01:37:25.783Z,9.279877
2023-02-14T01:38:25.737Z,9.279905
2023-02-14T01:39:25.714Z,9.279770
2023-02-14T01:40:25.699Z,9.279856
2023-02-14T01:41:25.676Z,9.279893
2023-02-14T01:42:25.687Z,9.279796
2023-02-14T01:43:25.646Z,9.279943
2023-02-14T01:44:25.620Z,9.279907
2023-02-14T01:45:25.601Z,9.279937
2023-02-14T01:46:25.583Z,9.279907
2023-02-14T01:47:25.565Z,9.279922
2023-02-14T01:48:25.580Z,9.279891
2023-02-14T01:49:25.539Z,9.279988
2023-02-14T01:50:25.506Z,9.279943
2023-02-14T01:51:25.499Z,9.279826
2023-02-14T01:52:25.480Z,9.279579
2023-02-14T01:53:25.493Z,9.279655
2023-02-14T01:54:25.435Z,9.279783
2023-02-14T01:55:25.412Z,9.279910
2023-02-14T01:56:25.404Z,9.279887
2023-02-14T01:57:25.376Z,9.279848
2023-02-14T01:58:25.399Z,9.279868
2023-02-14T01:59:25.373Z,9.279981
2023-02-14T02:00:25.339Z,9.280110
2023-02-14T02:01:25.353Z,9.279944
2023-02-14T02:02:25.353Z,9.280013
2023-02-14T02:03:25.305Z,9.279894
2023-02-14T02:04:25.263Z,9.279942
2023-02-14T02:05:25.239Z,9.279901
2023-02-14T02:06:25.220Z,9.279883
2023-02-14T02:07:25.209Z,9.279875
2023-02-14T02:08:25.210Z,9.279895
2023-02-14T02:09:25.166Z,9.279802
2023-02-14T02:10:25.179Z,9.279922
2023-02-14T02:11:25.125Z,9.279839
2023-02-14T02:12:25.140Z,9.279957
2023-02-14T02:13:25.122Z,9.279841
2023-02-14T02:14:25.074Z,9.279856
2023-02-14T02:15:25.065Z,9.279847
2023-02-14T02:16:25.080Z,9.279892
2023-02-14T02:17:25.013Z,9.279865
2023-02-14T02:18:25.030Z,9.279866
2023-02-14T02:19:24.979Z,9.279878
2023-02-14T02:20:24.959Z,9.279824
2023-02-14T02:21:24.986Z,9.279865
2023-02-14T02:22:24.913Z,9.279867
2023-02-14T02:23:24.928Z,9.279790
2023-02-14T02:24:24.875Z,9.279909
2023-02-14T02:25:24.905Z,9.279831
2023-02-14T02:26:24.845Z,9.279809
2023-02-14T02:27:26.053Z,9.279806
2023-02-14T02:28:25.850Z,9.279735
2023-02-14T02:29:24.789Z,9.279797
2023-02-14T02:30:24.849Z,9.279709
2023-02-14T02:31:24.877Z,9.279781
2023-02-14T02:32:24.731Z,9.279749
2023-02-14T02:33:24.737Z,9.279886
2023-02-14T02:34:24.687Z,9.279861
2023-02-14T02:35:24.672Z,9.279924
2023-02-14T02:36:24.657Z,9.279906
2023-02-14T02:37:24.641Z,9.279860
2023-02-14T02:38:24.642Z,9.279834
2023-02-14T02:39:24.606Z,9.279799
2023-02-14T02:40:24.586Z,9.279860
2023-02-14T02:41:24.574Z,9.279849
2023-02-14T02:42:24.545Z,9.279867
2023-02-14T02:43:24.552Z,9.279868
2023-02-14T02:44:24.506Z,9.279882
2023-02-14T02:45:24.489Z,9.279958
2023-02-14T02:46:24.530Z,9.279871
2023-02-14T02:47:24.451Z,9.279877
2023-02-14T02:48:24.464Z,9.279894
2023-02-14T02:49:24.415Z,9.279939
2023-02-14T02:50:24.396Z,9.279881
2023-02-14T02:51:24.382Z,9.279877
2023-02-14T02:52:24.352Z,9.279806
2023-02-14T02:53:24.364Z,9.279836
2023-02-14T02:54:24.339Z,9.279910
2023-02-14T02:55:24.306Z,9.279943
2023-02-14T02:56:24.284Z,9.279848
2023-02-14T02:57:24.261Z,9.279962
2023-02-14T02:58:24.288Z,9.279959
2023-02-14T02:59:24.237Z,9.279931
2023-02-14T03:00:24.211Z,9.279860
2023-02-14T03:01:24.268Z,9.279853
2023-02-14T03:02:24.180Z,9.279772
2023-02-14T03:03:24.185Z,9.279819
2023-02-14T03:04:24.175Z,9.279963
2023-02-14T03:05:24.112Z,9.280000
2023-02-14T03:06:24.101Z,9.279967
2023-02-14T03:07:24.078Z,9.279964
2023-02-14T03:08:24.087Z,9.279860
2023-02-14T03:09:24.039Z,9.279861
2023-02-14T03:10:24.026Z,9.279912
2023-02-14T03:11:24.002Z,9.279879
2023-02-14T03:12:23.980Z,9.279878
2023-02-14T03:13:23.991Z,9.279901
2023-02-14T03:14:23.951Z,9.279984
2023-02-14T03:15:23.915Z,9.280022
2023-02-14T03:16:23.911Z,9.279983
2023-02-14T03:17:23.886Z,9.280000
2023-02-14T03:18:23.891Z,9.279975
2023-02-14T03:19:23.846Z,9.279985
2023-02-14T03:20:23.832Z,9.279974
2023-02-14T03:21:23.809Z,9.280029
2023-02-14T03:22:23.793Z,9.279968
2023-02-14T03:23:23.804Z,9.279940
2023-02-14T03:24:23.751Z,9.279941
2023-02-14T03:25:23.733Z,9.279921
2023-02-14T03:26:23.716Z,9.279939
2023-02-14T03:27:23.710Z,9.279905
2023-02-14T03:28:23.704Z,9.279959
2023-02-14T03:29:23.658Z,9.279947
2023-02-14T03:30:23.667Z,9.280027
2023-02-14T03:31:23.685Z,9.280053
2023-02-14T03:32:23.644Z,9.280010
2023-02-14T03:33:23.643Z,9.280032
2023-02-14T03:34:23.569Z,9.279990
2023-02-14T03:35:23.547Z,9.280078
2023-02-14T03:36:23.577Z,9.280060
2023-02-14T03:37:23.515Z,9.279991
2023-02-14T03:38:23.494Z,9.279866
2023-02-14T03:39:23.474Z,9.279941
2023-02-14T03:40:23.459Z,9.280042
2023-02-14T03:41:23.479Z,9.280004
2023-02-14T03:42:23.426Z,9.279955
2023-02-14T03:43:23.432Z,9.279997
2023-02-14T03:44:23.385Z,9.279922
2023-02-14T03:45:23.408Z,9.279998
2023-02-14T03:46:23.451Z,9.280029
2023-02-14T03:47:23.326Z,9.280049
2023-02-14T03:48:23.336Z,9.279949
2023-02-14T03:49:23.296Z,9.280030
2023-02-14T03:50:23.270Z,9.279984
2023-02-14T03:51:23.256Z,9.279998
2023-02-14T03:52:23.236Z,9.280067
2023-02-14T03:53:23.243Z,9.280010
2023-02-14T03:54:23.196Z,9.280009
2023-02-14T03:55:23.178Z,9.279926
2023-02-14T03:56:23.157Z,9.280006
2023-02-14T03:57:23.140Z,9.279984
2023-02-14T03:58:23.155Z,9.279983
2023-02-14T03:59:23.104Z,9.280031
2023-02-14T04:00:23.085Z,9.279980
2023-02-14T04:01:23.090Z,9.280045
2023-02-14T04:02:23.055Z,9.280043
2023-02-14T04:03:23.112Z,9.280063
2023-02-14T04:04:23.008Z,9.280030
2023-02-14T04:05:22.994Z,9.280054
2023-02-14T04:06:22.976Z,9.279990
2023-02-14T04:07:22.958Z,9.280060
2023-02-14T04:08:22.971Z,9.279951
2023-02-14T04:09:22.920Z,9.280016
2023-02-14T04:10:22.901Z,9.279980
2023-02-14T04:11:24.474Z,9.279870
2023-02-14T04:12:36.786Z,9.279948
2023-02-14T04:13:24.904Z,9.280108
2023-02-14T04:14:22.832Z,9.280173
2023-02-14T04:15:22.820Z,9.280110
2023-02-14T04:16:22.847Z,9.280074
2023-02-14T04:17:22.838Z,9.280031
2023-02-14T04:18:22.790Z,9.280028
2023-02-14T04:19:22.753Z,9.279923
2023-02-14T04:20:22.728Z,9.279979
2023-02-14T04:21:22.705Z,9.279961
2023-02-14T04:22:22.714Z,9.279964
2023-02-14T04:23:22.706Z,9.280046
2023-02-14T04:24:22.652Z,9.280002
2023-02-14T04:25:22.644Z,9.280040
2023-02-14T04:26:22.634Z,9.280057
2023-02-14T04:27:22.602Z,9.280025
2023-02-14T04:28:22.576Z,9.280005
2023-02-14T04:29:22.590Z,9.280031
2023-02-14T04:30:22.579Z,9.279997
2023-02-14T04:31:22.632Z,9.280009
2023-02-14T04:32:22.560Z,9.279958
2023-02-14T04:33:22.487Z,9.279974
2023-02-14T04:34:22.497Z,9.279985
2023-02-14T04:35:22.450Z,9.279963
2023-02-14T04:36:22.434Z,9.279997
2023-02-14T04:37:22.414Z,9.280016
2023-02-14T04:38:22.395Z,9.280009
2023-02-14T04:39:22.408Z,9.280000
2023-02-14T04:40:22.360Z,9.280071
2023-02-14T04:41:22.340Z,9.279885
2023-02-14T04:42:22.322Z,9.279918
2023-02-14T04:43:22.305Z,9.279923
2023-02-14T04:44:22.317Z,9.279946
2023-02-14T04:45:22.269Z,9.280093
2023-02-14T04:46:22.305Z,9.280062
2023-02-14T04:47:22.234Z,9.279940
2023-02-14T04:48:22.211Z,9.280063
2023-02-14T04:49:22.227Z,9.279965
2023-02-14T04:50:22.182Z,9.279967
2023-02-14T04:51:22.156Z,9.279932
2023-02-14T04:52:22.142Z,9.279939
2023-02-14T04:53:22.126Z,9.279967
2023-02-14T04:54:22.134Z,9.279955
2023-02-14T04:55:22.089Z,9.279948
2023-02-14T04:56:22.064Z,9.279996
2023-02-14T04:57:22.043Z,9.280020
2023-02-14T04:58:22.029Z,9.279996
2023-02-14T04:59:24.368Z,9.279934
2023-02-14T05:00:21.991Z,9.279927
2023-02-14T05:01:22.061Z,9.279949
2023-02-14T05:02:22.063Z,9.279983
2023-02-14T05:03:21.974Z,9.279999
2023-02-14T05:04:21.946Z,9.279985
2023-02-14T05:05:21.895Z,9.279836
2023-02-14T05:06:21.882Z,9.279926
2023-02-14T05:07:21.860Z,9.279959
2023-02-14T05:08:21.838Z,9.280018
2023-02-14T05:09:21.855Z,9.279850
2023-02-14T05:10:21.803Z,9.279859
2023-02-14T05:11:21.783Z,9.279934
2023-02-14T05:12:21.765Z,9.279921
2023-02-14T05:13:21.749Z,9.280013
2023-02-14T05:14:21.755Z,9.279962
2023-02-14T05:15:21.710Z,9.279950
2023-02-14T05:16:21.711Z,9.279977
2023-02-14T05:17:21.674Z,9.279970
2023-02-14T05:18:21.653Z,9.279885
2023-02-14T05:19:21.668Z,9.279918
2023-02-14T05:20:21.615Z,9.279921
2023-02-14T05:21:21.602Z,9.279901
2023-02-14T05:22:21.579Z,9.279922
2023-02-14T05:23:21.586Z,9.279985
2023-02-14T05:24:21.575Z,9.279931
2023-02-14T05:25:21.528Z,9.279936
2023-02-14T05:26:21.504Z,9.279995
2023-02-14T05:27:21.486Z,9.280103
2023-02-14T05:28:21.469Z,9.280066
2023-02-14T05:29:21.487Z,9.279927
2023-02-14T05:30:21.535Z,9.280046
2023-02-14T05:31:21.517Z,9.280028
2023-02-14T05:32:21.392Z,9.280040
2023-02-14T05:33:21.375Z,9.279997
2023-02-14T05:34:21.871Z,9.279943
2023-02-14T05:35:22.339Z,9.279976
2023-02-14T05:36:21.319Z,9.280009
2023-02-14T05:37:21.303Z,9.279853
2023-02-14T05:38:21.285Z,9.279829
2023-02-14T05:39:21.297Z,9.279923
2023-02-14T05:40:21.254Z,9.279813
2023-02-14T05:41:21.224Z,9.279717
2023-02-14T05:42:21.203Z,9.279849
2023-02-14T05:43:21.191Z,9.279416
2023-02-14T05:44:21.202Z,9.279721
2023-02-14T05:45:21.154Z,9.279868
2023-02-14T05:46:21.140Z,9.279973
2023-02-14T05:47:21.120Z,9.279931
2023-02-14T05:48:21.103Z,9.279799
2023-02-14T05:49:21.128Z,9.280002
2023-02-14T05:50:21.071Z,9.279968
2023-02-14T05:51:21.050Z,9.279976
2023-02-14T05:52:21.038Z,9.279973
2023-02-14T05:53:21.015Z,9.279925
2023-02-14T05:54:21.027Z,9.279881
2023-02-14T05:55:20.986Z,9.279816
2023-02-14T05:56:20.965Z,9.279848
2023-02-14T05:57:20.947Z,9.279911
2023-02-14T05:58:20.930Z,9.279996
2023-02-14T05:59:20.939Z,9.279974
2023-02-14T06:00:20.894Z,9.280004
2023-02-14T06:01:20.868Z,9.279946
2023-02-14T06:02:20.893Z,9.280037
2023-02-14T06:03:20.852Z,9.279989
2023-02-14T06:04:20.936Z,9.279898
2023-02-14T06:05:20.804Z,9.279955
2023-02-14T06:06:20.779Z,9.279971
2023-02-14T06:07:20.771Z,9.279963
2023-02-14T06:08:20.744Z,9.280105
2023-02-14T06:09:20.753Z,9.280083
2023-02-14T06:10:20.706Z,9.279803
2023-02-14T06:11:20.679Z,9.279874
2023-02-14T06:12:21.673Z,9.279983
2023-02-14T06:13:20.648Z,9.280034
2023-02-14T06:14:20.667Z,9.280018
2023-02-14T06:15:20.615Z,9.280024
2023-02-14T06:16:20.833Z,9.279964
2023-02-14T06:17:20.577Z,9.279884
2023-02-14T06:18:20.561Z,9.279980
2023-02-14T06:19:20.570Z,9.279880
2023-02-14T06:20:20.525Z,9.279803
2023-02-14T06:21:20.517Z,9.279859
2023-02-14T06:22:20.485Z,9.279905
2023-02-14T06:23:20.467Z,9.279904
2023-02-14T06:24:20.473Z,9.279921
2023-02-14T06:25:20.424Z,9.279918
2023-02-14T06:26:20.421Z,9.279920
2023-02-14T06:27:20.398Z,9.279776
2023-02-14T06:28:20.377Z,9.279931
2023-02-14T06:29:20.384Z,9.279931
2023-02-14T06:30:20.387Z,9.279950
2023-02-14T06:31:20.454Z,9.280019
2023-02-14T06:32:21.298Z,9.279950
2023-02-14T06:33:20.283Z,9.279951
2023-02-14T06:34:20.292Z,9.280010
2023-02-14T06:35:20.245Z,9.279931
2023-02-14T06:36:20.227Z,9.279944
2023-02-14T06:37:20.206Z,9.279985
2023-02-14T06:38:20.186Z,9.279882
2023-02-14T06:39:20.197Z,9.279990
2023-02-14T06:40:20.153Z,9.279798
2023-02-14T06:41:20.129Z,9.279817
2023-02-14T06:42:20.119Z,9.279832
2023-02-14T06:43:20.102Z,9.279829
2023-02-14T06:44:20.103Z,9.279922
2023-02-14T06:45:20.055Z,9.279866
2023-02-14T06:46:20.113Z,9.279807
2023-02-14T06:47:20.011Z,9.279848
2023-02-14T06:48:19.997Z,9.279896
2023-02-14T06:49:20.008Z,9.279871
2023-02-14T06:50:19.961Z,9.279926
2023-02-14T06:51:19.938Z,9.279997
2023-02-14T06:52:19.920Z,9.279993
2023-02-14T06:53:19.908Z,9.279910
2023-02-14T06:54:19.917Z,9.279812
2023-02-14T06:55:19.862Z,9.279717
2023-02-14T06:56:20.853Z,9.279822
2023-02-14T06:57:19.831Z,9.279831
2023-02-14T06:58:19.813Z,9.279811
2023-02-14T06:59:19.836Z,9.279924
2023-02-14T07:00:19.774Z,9.279813
2023-02-14T07:01:19.777Z,9.279823
2023-02-14T07:02:19.761Z,9.279751
2023-02-14T07:03:19.716Z,9.279811
2023-02-14T07:04:20.776Z,9.279968
2023-02-14T07:05:19.681Z,9.280067
2023-02-14T07:06:19.663Z,9.280030
2023-02-14T07:07:19.658Z,9.279998
2023-02-14T07:08:19.628Z,9.279898
2023-02-14T07:09:19.609Z,9.279961
2023-02-14T07:10:19.621Z,9.279968
2023-02-14T07:11:19.575Z,9.279934
2023-02-14T07:12:19.566Z,9.279867
2023-02-14T07:13:19.549Z,9.279817
2023-02-14T07:14:19.519Z,9.279759
2023-02-14T07:15:19.528Z,9.279870
2023-02-14T07:16:19.489Z,9.279801
2023-02-14T07:17:19.469Z,9.279880
2023-02-14T07:18:19.454Z,9.279943
2023-02-14T07:19:19.430Z,9.279960
2023-02-14T07:20:19.455Z,9.279963
2023-02-14T07:21:19.401Z,9.279936
2023-02-14T07:22:19.374Z,9.279986
2023-02-14T07:23:19.374Z,9.279917
2023-02-14T07:24:19.336Z,9.279844
2023-02-14T07:25:19.352Z,9.279861
2023-02-14T07:26:19.294Z,9.279912
2023-02-14T07:27:19.277Z,9.279940
2023-02-14T07:28:19.257Z,9.280020
2023-02-14T07:29:19.232Z,9.279983
2023-02-14T07:30:19.332Z,9.279880
2023-02-14T07:31:19.266Z,9.279898
2023-02-14T07:32:20.304Z,9.279911
2023-02-14T07:33:19.153Z,9.279996
2023-02-14T07:34:19.122Z,9.279880
2023-02-14T07:35:19.143Z,9.279933
2023-02-14T07:36:19.079Z,9.279982
2023-02-14T07:37:19.059Z,9.279916
2023-02-14T07:38:19.043Z,9.280025
2023-02-14T07:39:19.045Z,9.279989
2023-02-14T07:40:19.029Z,9.280040
2023-02-14T07:41:18.994Z,9.280014
2023-02-14T07:42:18.965Z,9.279963
2023-02-14T07:43:20.209Z,9.279942
2023-02-14T07:44:19.925Z,9.279979
2023-02-14T07:45:22.048Z,9.279983
2023-02-14T07:46:19.904Z,9.279969
2023-02-14T07:47:18.871Z,9.279906
2023-02-14T07:48:18.849Z,9.279974
2023-02-14T07:49:18.846Z,9.279963
2023-02-14T07:50:18.838Z,9.279935
2023-02-14T07:51:18.792Z,9.280025
2023-02-14T07:52:18.780Z,9.280129
2023-02-14T07:53:18.755Z,9.280225
2023-02-14T07:54:20.318Z,9.279935
2023-02-14T07:55:19.783Z,9.279970
2023-02-14T07:56:18.699Z,9.279939
2023-02-14T07:57:18.682Z,9.279877
2023-02-14T07:58:18.656Z,9.279980
2023-02-14T07:59:18.644Z,9.280068
2023-02-14T08:00:18.660Z,9.280057
2023-02-14T08:01:18.632Z,9.280065
2023-02-14T08:02:18.587Z,9.280091
2023-02-14T08:03:18.571Z,9.280095
2023-02-14T08:04:18.556Z,9.280030
2023-02-14T08:05:18.697Z,9.280009
2023-02-14T08:06:18.522Z,9.280033
2023-02-14T08:07:18.488Z,9.280071
2023-02-14T08:08:18.468Z,9.280014
2023-02-14T08:09:18.454Z,9.279751
2023-02-14T08:10:18.467Z,9.279773
2023-02-14T08:11:18.421Z,9.279745
2023-02-14T08:12:18.400Z,9.280154
2023-02-14T08:13:18.383Z,9.280026
2023-02-14T08:14:18.361Z,9.279888
2023-02-14T08:15:18.385Z,9.279970
2023-02-14T08:16:18.352Z,9.279959
2023-02-14T08:17:18.308Z,9.279819
2023-02-14T08:18:18.320Z,9.279691
2023-02-14T08:19:18.284Z,9.279927
2023-02-14T08:20:18.277Z,9.280028
2023-02-14T08:21:18.250Z,9.279906
2023-02-14T08:22:18.232Z,9.279734
2023-02-14T08:23:18.201Z,9.279864
2023-02-14T08:24:18.177Z,9.279930
2023-02-14T08:25:18.192Z,9.279845
2023-02-14T08:26:18.138Z,9.279696
2023-02-14T08:27:19.123Z,9.279642
2023-02-14T08:28:18.319Z,9.279659
2023-02-14T08:29:18.085Z,9.279766
2023-02-14T08:30:18.124Z,9.279726
2023-02-14T08:31:30.033Z,9.279834
2023-02-14T08:32:20.109Z,9.279957
2023-02-14T08:33:18.010Z,9.279787
2023-02-14T08:34:17.987Z,9.279890
2023-02-14T08:35:18.035Z,9.279889
2023-02-14T08:36:17.959Z,9.279769
2023-02-14T08:37:17.943Z,9.279885
2023-02-14T08:38:17.925Z,9.280376
2023-02-14T08:39:17.901Z,9.280219
2023-02-14T08:40:17.915Z,9.279896
2023-02-14T08:41:17.866Z,9.279745
2023-02-14T08:42:17.849Z,9.279838
2023-02-14T08:43:17.861Z,9.280031
2023-02-14T08:44:17.806Z,9.279844
2023-02-14T08:45:17.822Z,9.279750
2023-02-14T08:46:17.826Z,9.279851
2023-02-14T08:47:17.754Z,9.279797
2023-02-14T08:48:17.795Z,9.279999
2023-02-14T08:49:17.716Z,9.279759
2023-02-14T08:50:17.735Z,9.279822
2023-02-14T08:51:17.684Z,9.280006
2023-02-14T08:52:17.666Z,9.279899
2023-02-14T08:53:17.654Z,9.279704
2023-02-14T08:54:17.642Z,9.279880
2023-02-14T08:55:17.634Z,9.279718
2023-02-14T08:56:17.619Z,9.279751
2023-02-14T08:57:17.572Z,9.279588
2023-02-14T08:58:17.546Z,9.279819
2023-02-14T08:59:17.529Z,9.279897
2023-02-14T09:00:17.541Z,9.279814
2023-02-14T09:01:17.584Z,9.279580
2023-02-14T09:02:17.484Z,9.279535
2023-02-14T09:03:17.482Z,9.279692
2023-02-14T09:04:17.542Z,9.280129
2023-02-14T09:05:17.463Z,9.280005
2023-02-14T09:06:17.782Z,9.279909
2023-02-14T09:07:17.429Z,9.279786
2023-02-14T09:08:17.384Z,9.279699
2023-02-14T09:09:17.390Z,9.279693
2023-02-14T09:10:17.358Z,9.279700
2023-02-14T09:11:17.311Z,9.279923
2023-02-14T09:12:17.345Z,9.279989
2023-02-14T09:13:17.347Z,9.279939
2023-02-14T09:14:17.322Z,9.279877
2023-02-14T09:15:17.339Z,9.279902
2023-02-14T09:16:17.324Z,9.279855
2023-02-14T09:17:17.220Z,9.279844
2023-02-14T09:18:17.198Z,9.279796
2023-02-14T09:19:17.209Z,9.279739
2023-02-14T09:20:17.200Z,9.279830
2023-02-14T09:21:17.139Z,9.279914
2023-02-14T09:22:17.169Z,9.280051
2023-02-14T09:23:17.098Z,9.280105
2023-02-14T09:24:18.105Z,9.280114
2023-02-14T09:25:17.101Z,9.279941
2023-02-14T09:26:17.061Z,9.279909
2023-02-14T09:27:17.033Z,9.279902
2023-02-14T09:28:17.017Z,9.279905
2023-02-14T09:29:16.995Z,9.279875
2023-02-14T09:30:17.091Z,9.279796
2023-02-14T09:31:17.036Z,9.279783
2023-02-14T09:32:17.036Z,9.279867
2023-02-14T09:33:16.925Z,9.279954
2023-02-14T09:34:16.907Z,9.279989
2023-02-14T09:35:16.921Z,9.280081
2023-02-14T09:36:16.889Z,9.280015
2023-02-14T09:37:16.857Z,9.280024
2023-02-14T09:38:16.838Z,9.279965
2023-02-14T09:39:16.817Z,9.279947
2023-02-14T09:40:16.832Z,9.280002
2023-02-14T09:41:16.774Z,9.280019
2023-02-14T09:42:16.760Z,9.279908
2023-02-14T09:43:16.744Z,9.279969
2023-02-14T09:44:16.766Z,9.279953
2023-02-14T09:45:16.737Z,9.279936
2023-02-14T09:46:16.816Z,9.279989
2023-02-14T09:47:16.679Z,9.279895
2023-02-14T09:48:16.657Z,9.279919
2023-02-14T09:49:16.773Z,9.280002
2023-02-14T09:50:16.642Z,9.279940
2023-02-14T09:51:16.592Z,9.279883
2023-02-14T09:52:16.710Z,9.279953
2023-02-14T09:53:16.570Z,9.279963
2023-02-14T09:54:16.543Z,9.279876
2023-02-14T09:55:16.568Z,9.279955
2023-02-14T09:56:16.544Z,9.279890
2023-02-14T09:57:16.490Z,9.279977
2023-02-14T09:58:16.472Z,9.279951
2023-02-14T09:59:16.450Z,9.279942
2023-02-14T10:00:16.437Z,9.279930
2023-02-14T10:01:16.526Z,9.279933
2023-02-14T10:02:16.471Z,9.279949
2023-02-14T10:03:16.385Z,9.279904
2023-02-14T10:04:16.918Z,9.279902
2023-02-14T10:05:16.346Z,9.279897
2023-02-14T10:06:16.410Z,9.279841
2023-02-14T10:07:16.307Z,9.279910
2023-02-14T10:08:16.294Z,9.279942
2023-02-14T10:09:16.266Z,9.279879
2023-02-14T10:10:16.258Z,9.279969
2023-02-14T10:11:16.272Z,9.280016
2023-02-14T10:12:16.211Z,9.279916
2023-02-14T10:13:16.191Z,9.279900
2023-02-14T10:14:16.173Z,9.279939
2023-02-14T10:15:16.162Z,9.279909
2023-02-14T10:16:16.171Z,9.279935
2023-02-14T10:17:16.128Z,9.279879
2023-02-14T10:18:16.102Z,9.279902
2023-02-14T10:19:16.081Z,9.279975
2023-02-14T10:20:16.065Z,9.279916
2023-02-14T10:21:16.085Z,9.279943
2023-02-14T10:22:16.026Z,9.279947
2023-02-14T10:23:16.010Z,9.280018
2023-02-14T10:24:15.997Z,9.279989
2023-02-14T10:25:16.979Z,9.279966
2023-02-14T10:26:15.998Z,9.279912
2023-02-14T10:27:15.949Z,9.279872
2023-02-14T10:28:16.978Z,9.279869
2023-02-14T10:29:16.905Z,9.279765
2023-02-14T10:30:15.935Z,9.279883
2023-02-14T10:31:15.991Z,9.279906
2023-02-14T10:32:15.949Z,9.279802
2023-02-14T10:33:15.839Z,9.279840
2023-02-14T10:34:15.807Z,9.279912
2023-02-14T10:35:15.795Z,9.279909
2023-02-14T10:36:15.800Z,9.279969
2023-02-14T10:37:15.935Z,9.279977
2023-02-14T10:38:15.740Z,9.279914
2023-02-14T10:39:15.717Z,9.279936
2023-02-14T10:40:17.442Z,9.279962
2023-02-14T10:41:16.710Z,9.279854
2023-02-14T10:42:15.668Z,9.279844
2023-02-14T10:43:15.651Z,9.279939
2023-02-14T10:44:15.634Z,9.279979
2023-02-14T10:45:15.617Z,9.280002
2023-02-14T10:46:18.036Z,9.279902
2023-02-14T10:47:16.577Z,9.279864
2023-02-14T10:48:15.558Z,9.279963
2023-02-14T10:49:15.571Z,9.279961
2023-02-14T10:50:15.530Z,9.280014
2023-02-14T10:51:15.532Z,9.279939
2023-02-14T10:52:15.487Z,9.279948
2023-02-14T10:53:15.475Z,9.279962
2023-02-14T10:54:15.457Z,9.279946
2023-02-14T10:55:30.086Z,9.279989
2023-02-14T10:56:17.463Z,9.279959
2023-02-14T10:57:15.418Z,9.279987
2023-02-14T10:58:15.398Z,9.280063
2023-02-14T10:59:15.350Z,9.280025
2023-02-14T11:00:15.349Z,9.279978
2023-02-14T11:01:16.313Z,9.280073
2023-02-14T11:02:15.342Z,9.280152
2023-02-14T11:03:15.335Z,9.279977
2023-02-14T11:04:15.276Z,9.279947
2023-02-14T11:05:15.251Z,9.279982
2023-02-14T11:06:15.270Z,9.280017
2023-02-14T11:07:15.232Z,9.279908
2023-02-14T11:08:15.204Z,9.280044
2023-02-14T11:09:15.187Z,9.280066
2023-02-14T11:10:15.162Z,9.279978
2023-02-14T11:11:15.162Z,9.279867
2023-02-14T11:12:15.107Z,9.279987
2023-02-14T11:13:15.118Z,9.279966
2023-02-14T11:14:16.707Z,9.279974
2023-02-14T11:15:15.060Z,9.279893
2023-02-14T11:16:15.165Z,9.280000
2023-02-14T11:17:15.021Z,9.279901
2023-02-14T11:18:14.997Z,9.279634
2023-02-14T11:19:14.981Z,9.279663
2023-02-14T11:20:14.964Z,9.279838
2023-02-14T11:21:14.973Z,9.279760
2023-02-14T11:22:14.920Z,9.279789
2023-02-14T11:23:14.894Z,9.279860
2023-02-14T11:24:14.885Z,9.279944
2023-02-14T11:25:14.857Z,9.280031
2023-02-14T11:26:14.864Z,9.279991
2023-02-14T11:27:14.822Z,9.279966
2023-02-14T11:28:14.799Z,9.280041
2023-02-14T11:29:15.468Z,9.280119
2023-02-14T11:30:14.758Z,9.280107
2023-02-14T11:31:14.859Z,9.280024
2023-02-14T11:32:14.710Z,9.279886
2023-02-14T11:33:14.747Z,9.279805
2023-02-14T11:34:14.677Z,9.279818
2023-02-14T11:35:14.659Z,9.279916
2023-02-14T11:36:14.651Z,9.279904
2023-02-14T11:37:14.602Z,9.279844
2023-02-14T11:38:14.589Z,9.279921
2023-02-14T11:39:14.563Z,9.279898
2023-02-14T11:40:14.550Z,9.279931
2023-02-14T11:41:14.548Z,9.279940
2023-02-14T11:42:14.579Z,9.279959
2023-02-14T11:43:15.121Z,9.279866
2023-02-14T11:44:15.458Z,9.279932